Time;durP1;ratioP1;P1;durP2;ratioP2;P2;SDS_P1;SDS_P2;PMS_P1;PMS_P2;Temp;Humidity;BMP_temperature;BMP_pressure;BME280_temperature;BME280_humidity;BME280_pressure;Samples;Min_cycle;Max_cycle;Signal;HPM_P1;HPM_P2
2021/09/03 00:00:22;;;;;;;10.18;8.55;;;;;;;11.67;100.00;96310.22;1030464;28;20032;-65
2021/09/03 00:00:53;;;;;;;9.98;7.22;;;;;;;11.71;100.00;96320.00;1030206;28;20026;-66
2021/09/03 00:01:23;;;;;;;11.98;8.77;;;;;;;11.73;100.00;96323.13;1026041;28;20038;-67
2021/09/03 00:01:54;;;;;;;12.75;8.48;;;;;;;11.74;100.00;96313.44;1026459;28;20073;-67
2021/09/03 00:02:30;;;;;;;10.98;8.27;;;;;;;11.72;100.00;96315.50;1020494;28;20058;-67
2021/09/03 00:03:00;;;;;;;11.65;8.23;;;;;;;11.72;100.00;96318.16;1019482;29;20580;-67
2021/09/03 00:03:31;;;;;;;11.23;8.35;;;;;;;11.58;100.00;96294.16;1025407;28;20266;-66
2021/09/03 00:04:01;;;;;;;10.88;7.88;;;;;;;11.72;100.00;96324.19;1025798;28;20476;-66
2021/09/03 00:04:32;;;;;;;10.90;7.93;;;;;;;11.71;100.00;96324.47;1026648;28;20042;-67
2021/09/03 00:05:05;;;;;;;10.18;8.20;;;;;;;11.68;100.00;96324.97;1026174;28;20046;-67
2021/09/03 00:05:35;;;;;;;9.20;7.45;;;;;;;11.68;100.00;96319.72;1028983;28;20096;-65
2021/09/03 00:06:06;;;;;;;9.85;7.57;;;;;;;11.67;100.00;96318.09;1022461;29;20824;-67
2021/09/03 00:06:36;;;;;;;11.88;8.20;;;;;;;11.66;100.00;96317.31;1030398;28;20142;-66
2021/09/03 00:07:07;;;;;;;11.32;7.90;;;;;;;11.66;100.00;96321.78;1030228;28;20559;-68
2021/09/03 00:07:38;;;;;;;13.10;8.20;;;;;;;11.64;100.00;96314.16;1029713;28;20030;-64
2021/09/03 00:08:08;;;;;;;11.70;7.93;;;;;;;11.63;100.00;96322.28;1022315;29;20140;-68
2021/09/03 00:08:39;;;;;;;9.63;8.07;;;;;;;11.63;100.00;96317.03;1018871;29;20024;-67
2021/09/03 00:09:09;;;;;;;12.43;8.40;;;;;;;11.63;100.00;96322.28;1022270;28;20591;-67
2021/09/03 00:09:40;;;;;;;10.80;8.13;;;;;;;11.63;100.00;96327.56;1022415;28;20322;-68
2021/09/03 00:10:12;;;;;;;13.23;8.32;;;;;;;11.65;100.00;96317.59;1030388;28;20026;-67
2021/09/03 00:10:42;;;;;;;11.43;8.00;;;;;;;11.65;100.00;96325.47;1026334;28;20106;-65
2021/09/03 00:11:13;;;;;;;13.82;8.63;;;;;;;11.65;100.00;96325.47;1027431;28;20274;-66
2021/09/03 00:11:44;;;;;;;13.73;8.40;;;;;;;11.59;100.00;96311.50;1030095;28;20034;-68
2021/09/03 00:12:14;;;;;;;11.23;8.38;;;;;;;11.64;100.00;96326.53;1030169;28;20101;-67
2021/09/03 00:12:45;;;;;;;10.40;8.50;;;;;;;11.57;100.00;96309.13;1029197;28;20285;-65
2021/09/03 00:13:15;;;;;;;9.75;8.25;;;;;;;11.62;100.00;96326.75;1030394;28;20037;-68
2021/09/03 00:13:46;;;;;;;10.88;8.18;;;;;;;11.56;100.00;96312.78;1034279;28;20114;-67
2021/09/03 00:14:16;;;;;;;10.85;8.07;;;;;;;11.61;100.00;96327.03;1024886;28;20077;-67
2021/09/03 00:14:46;;;;;;;10.57;8.10;;;;;;;11.60;100.00;96320.16;1022294;28;20030;-67
2021/09/03 00:15:20;;;;;;;12.73;9.25;;;;;;;11.59;100.00;96318.59;1026546;28;20038;-67
2021/09/03 00:15:50;;;;;;;11.52;8.77;;;;;;;11.57;100.00;96324.91;1026137;28;20026;-68
2021/09/03 00:16:21;;;;;;;13.43;8.05;;;;;;;11.52;100.00;96319.59;1026330;28;20274;-67
2021/09/03 00:16:51;;;;;;;12.43;8.52;;;;;;;11.50;100.00;96315.63;1027103;28;20038;-66
2021/09/03 00:17:22;;;;;;;11.18;8.23;;;;;;;11.53;100.00;96320.38;1026176;28;20085;-67
2021/09/03 00:17:52;;;;;;;11.75;8.60;;;;;;;11.53;100.00;96323.81;1029244;28;20027;-67
2021/09/03 00:18:23;;;;;;;17.45;8.88;;;;;;;11.47;100.00;96309.06;1030466;28;20472;-65
2021/09/03 00:18:53;;;;;;;9.90;7.95;;;;;;;11.47;100.00;96319.59;1038598;28;20060;-67
2021/09/03 00:19:23;;;;;;;11.07;7.97;;;;;;;11.49;100.00;96322.75;1032136;28;20037;-65
2021/09/03 00:19:54;;;;;;;10.13;8.40;;;;;;;11.45;100.00;96315.63;1029877;28;20037;-67
2021/09/03 00:20:24;;;;;;;11.23;8.38;;;;;;;11.46;100.00;96323.25;1030023;28;20087;-67
2021/09/03 00:20:55;;;;;;;11.23;9.05;;;;;;;11.44;100.00;96325.34;1026416;28;20025;-68
2021/09/03 00:21:25;;;;;;;11.15;8.43;;;;;;;11.45;100.00;96320.88;1022767;28;20023;-66
2021/09/03 00:21:55;;;;;;;11.82;8.68;;;;;;;11.43;100.00;96329.00;1026019;28;20027;-67
2021/09/03 00:22:26;;;;;;;10.88;8.68;;;;;;;11.45;100.00;96321.66;1026617;28;20283;-67
2021/09/03 00:22:56;;;;;;;10.93;8.48;;;;;;;11.44;100.00;96320.09;1030170;28;20027;-67
2021/09/03 00:23:27;;;;;;;9.90;8.07;;;;;;;11.44;100.00;96321.94;1032184;28;20034;-67
2021/09/03 00:23:57;;;;;;;12.52;8.45;;;;;;;11.42;100.00;96327.44;1030406;28;20098;-68
2021/09/03 00:24:28;;;;;;;11.18;8.50;;;;;;;11.42;100.00;96326.63;1031114;28;20026;-67
2021/09/03 00:24:58;;;;;;;11.80;8.70;;;;;;;11.40;100.00;96321.66;1036880;28;20026;-67
2021/09/03 00:25:29;;;;;;;14.35;8.55;;;;;;;11.42;100.00;96324.78;1032251;28;20030;-67
2021/09/03 00:25:59;;;;;;;12.02;8.00;;;;;;;11.41;100.00;96323.22;1027158;28;20038;-68
2021/09/03 00:26:30;;;;;;;12.27;8.35;;;;;;;11.40;100.00;96329.53;1026656;28;20023;-67
2021/09/03 00:27:00;;;;;;;10.82;8.75;;;;;;;11.39;100.00;96325.31;1027470;28;20026;-68
2021/09/03 00:27:31;;;;;;;12.88;8.60;;;;;;;11.39;100.00;96324.50;1023598;29;20070;-68
2021/09/03 00:28:01;;;;;;;11.13;8.07;;;;;;;11.40;100.00;96328.72;1023279;28;20019;-67
2021/09/03 00:28:31;;;;;;;11.55;8.70;;;;;;;11.41;100.00;96323.22;1026799;28;20023;-67
2021/09/03 00:29:02;;;;;;;10.50;8.32;;;;;;;11.39;100.00;96321.88;1027304;28;20026;-65
2021/09/03 00:29:33;;;;;;;10.48;8.15;;;;;;;11.32;100.00;96308.97;1027375;28;20031;-67
2021/09/03 00:30:04;;;;;;;11.35;8.48;;;;;;;11.38;100.00;96325.56;1029782;28;20121;-66
2021/09/03 00:30:35;;;;;;;13.82;8.88;;;;;;;11.35;100.00;96316.34;1030021;28;20022;-68
2021/09/03 00:31:05;;;;;;;11.25;8.75;;;;;;;11.38;100.00;96320.31;1027428;28;20270;-69
2021/09/03 00:31:36;;;;;;;11.13;8.75;;;;;;;11.37;100.00;96319.53;1030359;28;20041;-67
2021/09/03 00:32:06;;;;;;;11.18;8.40;;;;;;;11.38;100.00;96323.72;1039323;28;20041;-68
2021/09/03 00:32:37;;;;;;;13.77;8.20;;;;;;;11.30;100.00;96316.31;1039364;28;20029;-68
2021/09/03 00:33:07;;;;;;;11.57;8.32;;;;;;;11.34;100.00;96325.28;1035373;28;20108;-67
2021/09/03 00:33:38;;;;;;;11.20;8.63;;;;;;;11.35;100.00;96320.81;1035040;28;20030;-68
2021/09/03 00:34:08;;;;;;;11.43;8.48;;;;;;;11.36;100.00;96320.56;1027194;28;20066;-67
2021/09/03 00:34:39;;;;;;;10.32;7.85;;;;;;;11.36;100.00;96320.56;1019235;29;20061;-68
2021/09/03 00:35:09;;;;;;;11.13;8.02;;;;;;;11.31;100.00;96321.31;1028210;28;20556;-67
2021/09/03 00:35:40;;;;;;;11.32;8.30;;;;;;;11.30;100.00;96313.66;1026817;28;20329;-68
2021/09/03 00:36:10;;;;;;;9.98;7.68;;;;;;;11.30;100.00;96316.31;1023224;29;20535;-69
2021/09/03 00:36:43;;;;;;;10.95;7.68;;;;;;;11.32;100.00;96322.88;1018774;29;20486;-65
2021/09/03 00:37:14;;;;;;;11.52;7.88;;;;;;;11.30;100.00;96314.50;1027315;28;20046;-67
2021/09/03 00:37:45;;;;;;;10.68;8.07;;;;;;;11.30;100.00;96321.56;1022921;29;20290;-67
2021/09/03 00:38:15;;;;;;;10.38;8.05;;;;;;;11.29;100.00;96322.59;1023059;29;20318;-70
2021/09/03 00:38:46;;;;;;;12.40;7.78;;;;;;;11.27;100.00;96320.25;1022962;28;20031;-67
2021/09/03 00:39:16;;;;;;;12.23;8.45;;;;;;;11.25;100.00;96319.69;1018638;29;20477;-67
2021/09/03 00:39:47;;;;;;;11.38;8.18;;;;;;;11.26;100.00;96323.09;1026242;28;20034;-67
2021/09/03 00:40:17;;;;;;;10.75;8.52;;;;;;;11.24;100.00;96326.00;1029298;28;20030;-68
2021/09/03 00:40:48;;;;;;;11.75;8.48;;;;;;;11.23;100.00;96323.59;1023691;29;20035;-65
2021/09/03 00:41:18;;;;;;;11.13;8.45;;;;;;;11.20;100.00;96318.84;1023140;29;20032;-66
2021/09/03 00:41:49;;;;;;;12.70;8.25;;;;;;;11.21;100.00;96315.22;1031466;28;20034;-67
2021/09/03 00:42:19;;;;;;;12.55;7.88;;;;;;;11.14;100.00;96312.00;1035374;28;20079;-68
2021/09/03 00:42:49;;;;;;;12.15;8.45;;;;;;;11.11;100.00;96305.41;1022809;28;20376;-69
2021/09/03 00:43:20;;;;;;;11.35;8.40;;;;;;;11.18;100.00;96315.72;1030976;28;20058;-68
2021/09/03 00:43:51;;;;;;;10.77;8.25;;;;;;;11.15;100.00;96321.47;1028056;28;20027;-68
2021/09/03 00:44:21;;;;;;;11.05;8.65;;;;;;;11.09;100.00;96313.53;1030656;28;20030;-67
2021/09/03 00:44:51;;;;;;;14.55;8.73;;;;;;;11.09;100.00;96312.75;1031016;28;20034;-68
2021/09/03 00:45:22;;;;;;;10.40;8.35;;;;;;;11.08;100.00;96311.94;1026910;28;20027;-67
2021/09/03 00:45:52;;;;;;;13.48;8.85;;;;;;;11.03;100.00;96304.06;1031091;28;20034;-68
2021/09/03 00:46:23;;;;;;;12.20;9.07;;;;;;;11.12;100.00;96320.13;1027101;28;20536;-67
2021/09/03 00:46:53;;;;;;;12.95;9.23;;;;;;;11.11;100.00;96315.13;1028539;28;20110;-67
2021/09/03 00:47:24;;;;;;;12.30;8.98;;;;;;;11.09;100.00;96316.16;1023044;29;20114;-68
2021/09/03 00:47:54;;;;;;;12.43;8.68;;;;;;;11.09;100.00;96313.53;1027367;28;20069;-68
2021/09/03 00:48:25;;;;;;;11.75;8.32;;;;;;;11.12;100.00;96316.72;1023179;29;20043;-68
2021/09/03 00:48:56;;;;;;;12.60;8.70;;;;;;;11.06;100.00;96307.97;1026997;28;20039;-68
2021/09/03 00:49:27;;;;;;;14.50;9.55;;;;;;;11.10;100.00;96309.09;1030992;28;20124;-67
2021/09/03 00:49:57;;;;;;;16.38;11.57;;;;;;;11.05;100.00;96307.19;1027167;28;20270;-65
2021/09/03 00:50:28;;;;;;;15.45;10.95;;;;;;;11.11;100.00;96312.50;1025039;28;20038;-67
2021/09/03 00:50:58;;;;;;;12.18;9.40;;;;;;;11.13;100.00;96313.03;1031430;28;20049;-67
2021/09/03 00:51:29;;;;;;;11.73;8.18;;;;;;;11.11;100.00;96317.75;1022537;29;20477;-67
2021/09/03 00:52:04;;;;;;;12.52;7.97;;;;;;;11.03;100.00;96303.22;1024274;28;20070;-67
2021/09/03 00:52:34;;;;;;;10.48;8.73;;;;;;;11.07;100.00;96313.00;1031338;28;20033;-67
2021/09/03 00:53:05;;;;;;;10.15;8.43;;;;;;;11.05;100.00;96315.06;1023107;29;20371;-68
2021/09/03 00:53:35;;;;;;;11.32;8.57;;;;;;;11.02;100.00;96307.69;1015410;29;20028;-70
2021/09/03 00:54:06;;;;;;;11.45;9.13;;;;;;;11.02;100.00;96312.16;1021647;28;20028;-68
2021/09/03 00:54:37;;;;;;;10.43;9.02;;;;;;;10.98;100.00;96317.13;1023425;29;20059;-69
2021/09/03 00:55:07;;;;;;;10.65;7.95;;;;;;;10.96;100.00;96313.94;1019251;29;20784;-68
2021/09/03 00:55:38;;;;;;;14.02;8.20;;;;;;;10.90;100.00;96299.22;1021743;28;20151;-68
2021/09/03 00:56:08;;;;;;;10.88;8.27;;;;;;;10.94;100.00;96310.78;1027297;28;20027;-68
2021/09/03 00:56:39;;;;;;;11.55;9.07;;;;;;;10.93;100.00;96313.66;1027386;28;20098;-68
2021/09/03 00:57:10;;;;;;;11.18;8.57;;;;;;;10.87;100.00;96304.97;1025341;28;20027;-68
2021/09/03 00:57:40;;;;;;;11.95;8.80;;;;;;;10.88;100.00;96303.13;1023515;29;20026;-69
2021/09/03 00:58:11;;;;;;;14.38;8.20;;;;;;;10.87;100.00;96306.81;1023338;29;20358;-68
2021/09/03 00:58:42;;;;;;;15.93;8.50;;;;;;;10.84;100.00;96310.72;1031517;28;20033;-67
2021/09/03 00:59:12;;;;;;;9.25;8.05;;;;;;;10.83;100.00;96309.09;1018974;29;20111;-68
2021/09/03 00:59:42;;;;;;;11.30;9.23;;;;;;;10.82;100.00;96313.56;1021848;29;20035;-67
2021/09/03 01:00:13;;;;;;;13.90;8.75;;;;;;;10.81;100.00;96312.00;1026033;28;20530;-68
2021/09/03 01:00:44;;;;;;;11.95;8.15;;;;;;;10.79;100.00;96314.06;1027064;28;20089;-67
2021/09/03 01:01:17;;;;;;;10.20;8.35;;;;;;;10.76;100.00;96313.78;1026599;28;20377;-68
2021/09/03 01:01:47;;;;;;;13.35;8.68;;;;;;;10.77;100.00;96310.91;1031579;28;20023;-66
2021/09/03 01:02:18;;;;;;;13.05;8.55;;;;;;;10.75;100.00;96318.25;1033324;28;20273;-67
2021/09/03 01:02:48;;;;;;;11.77;8.70;;;;;;;10.73;100.00;96311.66;1035288;28;20029;-67
2021/09/03 01:03:18;;;;;;;11.13;8.73;;;;;;;10.72;100.00;96310.06;1031131;28;20110;-67
2021/09/03 01:03:49;;;;;;;12.57;9.30;;;;;;;10.65;100.00;96306.84;1022211;28;20034;-68
2021/09/03 01:04:19;;;;;;;10.48;8.38;;;;;;;10.68;100.00;96306.38;1031158;28;20026;-68
2021/09/03 01:04:50;;;;;;;10.27;8.40;;;;;;;10.65;100.00;96312.91;1031430;28;20456;-68
2021/09/03 01:05:23;;;;;;;10.85;8.20;;;;;;;10.65;100.00;96312.91;1026074;28;20078;-68
2021/09/03 01:05:53;;;;;;;10.93;8.80;;;;;;;10.65;100.00;96310.28;1026630;28;20691;-68
2021/09/03 01:06:24;;;;;;;10.75;9.10;;;;;;;10.60;100.00;96300.53;1027659;28;20357;-69
2021/09/03 01:06:54;;;;;;;11.35;8.73;;;;;;;10.65;100.00;96312.09;1027373;28;20141;-68
2021/09/03 01:07:25;;;;;;;12.77;9.15;;;;;;;10.62;100.00;96310.75;1022521;28;20030;-67
2021/09/03 01:07:55;;;;;;;11.43;8.15;;;;;;;10.56;100.00;96307.31;1025277;28;20076;-67
2021/09/03 01:08:26;;;;;;;11.07;8.73;;;;;;;10.57;100.00;96314.16;1029261;28;20018;-67
2021/09/03 01:08:56;;;;;;;10.60;8.98;;;;;;;10.54;100.00;96314.63;1022094;29;20571;-68
2021/09/03 01:09:26;;;;;;;11.88;8.50;;;;;;;10.55;100.00;96316.22;1022356;28;20433;-67
2021/09/03 01:09:57;;;;;;;11.95;8.70;;;;;;;10.55;100.00;96313.59;1031037;28;20812;-69
2021/09/03 01:10:27;;;;;;;11.07;8.90;;;;;;;10.56;100.00;96319.63;1031276;28;20023;-68
2021/09/03 01:10:58;;;;;;;9.98;8.48;;;;;;;10.56;100.00;96309.94;1023425;29;20026;-67
2021/09/03 01:11:29;;;;;;;11.00;8.57;;;;;;;10.57;100.00;96311.53;1022319;28;20464;-68
2021/09/03 01:11:59;;;;;;;11.88;9.40;;;;;;;10.56;100.00;96315.19;1027389;28;20254;-68
2021/09/03 01:12:30;;;;;;;13.05;8.43;;;;;;;10.54;100.00;96314.63;1031756;28;20049;-68
2021/09/03 01:13:00;;;;;;;11.63;8.93;;;;;;;10.46;100.00;96309.03;1035210;28;20054;-67
2021/09/03 01:13:31;;;;;;;13.52;9.18;;;;;;;10.47;100.00;96311.41;1036224;28;20018;-68
2021/09/03 01:14:01;;;;;;;13.85;9.32;;;;;;;10.46;100.00;96312.47;1035407;28;20025;-65
2021/09/03 01:14:32;;;;;;;11.68;9.07;;;;;;;10.45;100.00;96312.69;1030712;28;20022;-68
2021/09/03 01:15:02;;;;;;;13.13;9.95;;;;;;;10.36;100.00;96307.09;1031199;28;20015;-67
2021/09/03 01:15:33;;;;;;;14.85;8.90;;;;;;;10.40;100.00;96313.44;1031851;28;20068;-68
2021/09/03 01:16:04;;;;;;;16.08;9.65;;;;;;;10.37;100.00;96311.31;1030910;28;20073;-68
2021/09/03 01:16:34;;;;;;;10.75;9.07;;;;;;;10.32;100.00;96313.88;1027192;28;20019;-68
2021/09/03 01:17:05;;;;;;;10.55;8.88;;;;;;;10.32;100.00;96309.41;1019244;29;20110;-68
2021/09/03 01:17:37;;;;;;;14.07;9.40;;;;;;;10.30;100.00;96313.34;1019644;28;20051;-68
2021/09/03 01:18:07;;;;;;;11.73;9.70;;;;;;;10.25;100.00;96313.25;1025082;28;20031;-68
2021/09/03 01:18:38;;;;;;;12.35;9.52;;;;;;;10.24;100.00;96314.28;1031179;28;20269;-69
2021/09/03 01:19:08;;;;;;;12.18;9.02;;;;;;;10.13;100.00;96297.66;1035051;28;20536;-68
2021/09/03 01:19:39;;;;;;;11.23;8.77;;;;;;;10.20;100.00;96315.81;1030951;28;20058;-68
2021/09/03 01:20:10;;;;;;;11.45;9.23;;;;;;;10.17;100.00;96311.84;1030193;28;20405;-68
2021/09/03 01:20:41;;;;;;;13.43;9.18;;;;;;;10.15;100.00;96313.91;1027253;28;20063;-68
2021/09/03 01:21:11;;;;;;;13.05;9.38;;;;;;;10.11;100.00;96303.13;1030361;28;20257;-67
2021/09/03 01:21:42;;;;;;;14.93;9.93;;;;;;;10.10;100.00;96309.41;1029993;28;20045;-68
2021/09/03 01:22:12;;;;;;;11.95;9.10;;;;;;;10.08;100.00;96314.09;1031341;28;20034;-68
2021/09/03 01:22:43;;;;;;;11.85;9.27;;;;;;;10.10;100.00;96313.88;1033590;28;20080;-68
2021/09/03 01:23:14;;;;;;;13.35;10.23;;;;;;;10.01;100.00;96302.22;1032674;28;20021;-68
2021/09/03 01:23:44;;;;;;;12.93;9.73;;;;;;;10.04;100.00;96313.03;1035408;28;20383;-68
2021/09/03 01:24:14;;;;;;;14.63;9.18;;;;;;;10.01;100.00;96308.25;1035067;28;20018;-68
2021/09/03 01:24:45;;;;;;;11.63;9.55;;;;;;;10.01;100.00;96313.50;1034843;28;20030;-67
2021/09/03 01:25:15;;;;;;;14.23;9.93;;;;;;;10.00;100.00;96311.13;1038992;28;20671;-68
2021/09/03 01:25:46;;;;;;;13.15;9.95;;;;;;;9.93;100.00;96300.84;1035408;28;20037;-67
2021/09/03 01:26:16;;;;;;;13.75;9.48;;;;;;;9.99;100.00;96305.06;1030055;28;20464;-68
2021/09/03 01:26:47;;;;;;;15.20;10.52;;;;;;;9.89;100.00;96297.91;1030326;28;20034;-68
2021/09/03 01:27:17;;;;;;;14.60;10.52;;;;;;;9.95;100.00;96309.22;1027370;28;20819;-68
2021/09/03 01:27:48;;;;;;;12.27;9.80;;;;;;;9.94;100.00;96310.28;1027389;28;20035;-68
2021/09/03 01:28:18;;;;;;;12.88;9.60;;;;;;;9.92;100.00;96309.72;1022801;28;20027;-68
2021/09/03 01:28:48;;;;;;;14.70;9.55;;;;;;;9.90;100.00;96309.19;1023275;28;20019;-68
2021/09/03 01:29:19;;;;;;;11.50;9.50;;;;;;;9.88;100.00;96311.25;1027373;28;20027;-68
2021/09/03 01:29:49;;;;;;;12.60;10.20;;;;;;;9.85;100.00;96309.09;1031088;28;20702;-68
2021/09/03 01:30:20;;;;;;;14.43;10.15;;;;;;;9.84;100.00;96308.31;1035187;28;20399;-68
2021/09/03 01:30:50;;;;;;;13.95;8.98;;;;;;;9.76;100.00;96295.66;1031149;28;20097;-68
2021/09/03 01:31:21;;;;;;;13.32;9.73;;;;;;;9.79;100.00;96304.84;1022377;28;20043;-67
2021/09/03 01:31:51;;;;;;;11.32;8.80;;;;;;;9.78;100.00;96313.75;1024059;28;20019;-68
2021/09/03 01:32:22;;;;;;;11.50;9.13;;;;;;;9.77;100.00;96301.69;1023333;28;20019;-68
2021/09/03 01:32:52;;;;;;;12.00;9.30;;;;;;;9.74;100.00;96302.94;1027453;28;20075;-69
2021/09/03 01:33:23;;;;;;;13.40;10.45;;;;;;;9.72;100.00;96299.78;1024754;28;20032;-67
2021/09/03 01:33:57;;;;;;;13.80;9.57;;;;;;;9.71;100.00;96302.66;1028502;28;20035;-68
2021/09/03 01:34:27;;;;;;;12.40;9.52;;;;;;;9.68;100.00;96303.91;1028718;28;20118;-67
2021/09/03 01:34:58;;;;;;;14.30;10.57;;;;;;;9.67;100.00;96297.88;1028170;28;20282;-67
2021/09/03 01:35:28;;;;;;;14.00;9.75;;;;;;;9.65;100.00;96299.94;1035596;28;20041;-67
2021/09/03 01:35:58;;;;;;;12.20;9.45;;;;;;;9.65;100.00;96302.56;1036392;28;20037;-68
2021/09/03 01:36:29;;;;;;;15.80;10.10;;;;;;;9.65;100.00;96299.94;1034570;28;20034;-67
2021/09/03 01:37:00;;;;;;;13.35;9.07;;;;;;;9.67;100.00;96291.84;1031674;28;20455;-68
2021/09/03 01:37:30;;;;;;;11.35;9.20;;;;;;;9.58;100.00;96288.84;1031755;28;20128;-68
2021/09/03 01:38:01;;;;;;;13.30;9.23;;;;;;;9.57;100.00;96287.28;1030773;28;20053;-64
2021/09/03 01:38:31;;;;;;;12.63;10.57;;;;;;;9.60;100.00;96296.47;1026516;28;20091;-65
2021/09/03 01:39:02;;;;;;;11.82;9.35;;;;;;;9.61;100.00;96298.84;1025851;28;20033;-64
2021/09/03 01:39:32;;;;;;;11.43;9.55;;;;;;;9.60;100.00;96299.91;1027901;28;20023;-66
2021/09/03 01:40:04;;;;;;;13.65;10.07;;;;;;;9.59;100.00;96294.88;1025278;28;20027;-67
2021/09/03 01:40:34;;;;;;;13.20;10.00;;;;;;;9.52;100.00;96289.81;1023661;28;20513;-65
2021/09/03 01:41:05;;;;;;;11.93;9.18;;;;;;;9.53;100.00;96291.41;1024615;28;20263;-66
2021/09/03 01:41:35;;;;;;;14.38;9.98;;;;;;;9.39;100.00;96274.47;1027440;28;20095;-65
2021/09/03 01:42:06;;;;;;;13.35;10.45;;;;;;;9.53;100.00;96295.88;1027290;28;20516;-66
2021/09/03 01:42:36;;;;;;;14.15;10.45;;;;;;;9.51;100.00;96292.69;1024384;28;20029;-67
2021/09/03 01:43:07;;;;;;;12.82;9.93;;;;;;;9.47;100.00;96284.53;1027724;28;20420;-66
2021/09/03 01:43:37;;;;;;;14.00;9.90;;;;;;;9.50;100.00;96291.91;1023765;28;20090;-66
2021/09/03 01:44:10;;;;;;;12.32;9.50;;;;;;;9.48;100.00;96293.97;1027928;28;20085;-66
2021/09/03 01:44:40;;;;;;;14.02;10.02;;;;;;;9.41;100.00;96283.66;1023755;28;20038;-67
2021/09/03 01:45:11;;;;;;;12.02;9.95;;;;;;;9.41;100.00;96282.84;1022555;28;20289;-64
2021/09/03 01:45:41;;;;;;;19.65;10.15;;;;;;;9.44;100.00;96293.66;1033491;28;20066;-64
2021/09/03 01:46:12;;;;;;;15.75;10.05;;;;;;;9.42;100.00;96289.69;1035157;28;20576;-65
2021/09/03 01:46:42;;;;;;;13.75;10.43;;;;;;;9.41;100.00;96291.50;1022918;29;20035;-65
2021/09/03 01:47:13;;;;;;;15.23;10.38;;;;;;;9.39;100.00;96288.34;1022978;28;20065;-64
2021/09/03 01:47:43;;;;;;;12.52;9.75;;;;;;;9.33;100.00;96275.44;1027394;28;20038;-64
2021/09/03 01:48:14;;;;;;;11.32;9.02;;;;;;;9.36;100.00;96290.66;1027667;28;20035;-65
2021/09/03 01:48:45;;;;;;;13.13;10.13;;;;;;;9.36;100.00;96285.44;1022924;28;20034;-64
2021/09/03 01:49:15;;;;;;;12.75;9.32;;;;;;;9.30;100.00;96281.16;1031459;28;20097;-65
2021/09/03 01:49:46;;;;;;;12.80;10.07;;;;;;;9.37;100.00;96287.00;1035487;28;20273;-65
2021/09/03 01:50:16;;;;;;;11.75;9.25;;;;;;;9.35;100.00;96289.84;1031209;28;20030;-64
2021/09/03 01:50:47;;;;;;;11.35;8.95;;;;;;;9.33;100.00;96293.75;1039814;28;20091;-65
2021/09/03 01:51:17;;;;;;;14.82;9.48;;;;;;;9.33;100.00;96304.25;1030220;28;20537;-65
2021/09/03 01:51:48;;;;;;;16.05;10.23;;;;;;;9.22;100.00;96274.47;1026730;28;20023;-66
2021/09/03 01:52:18;;;;;;;13.60;10.02;;;;;;;9.32;100.00;96294.78;1028142;28;20348;-65
2021/09/03 01:52:48;;;;;;;13.48;10.02;;;;;;;9.32;100.00;96292.16;1027261;28;20073;-66
2021/09/03 01:53:19;;;;;;;13.20;10.13;;;;;;;9.24;100.00;96295.97;1035145;28;20037;-65
2021/09/03 01:53:50;;;;;;;14.32;9.43;;;;;;;9.29;100.00;96295.25;1023653;28;20029;-64
2021/09/03 01:54:20;;;;;;;13.32;10.15;;;;;;;9.28;100.00;96304.16;1023002;29;20505;-66
2021/09/03 01:54:50;;;;;;;12.43;9.27;;;;;;;9.25;100.00;96296.78;1023387;28;20038;-64
2021/09/03 01:55:21;;;;;;;15.48;10.30;;;;;;;9.18;100.00;96292.47;1023953;28;20035;-64
2021/09/03 01:55:52;;;;;;;13.50;10.45;;;;;;;9.26;100.00;96301.00;1025923;28;20084;-64
2021/09/03 01:56:22;;;;;;;15.13;9.93;;;;;;;9.23;100.00;96301.47;1021612;29;20118;-64
2021/09/03 01:56:53;;;;;;;13.20;10.48;;;;;;;9.23;100.00;96301.47;1020143;28;20066;-64
2021/09/03 01:57:23;;;;;;;14.10;10.43;;;;;;;9.24;100.00;96297.81;1025584;28;20047;-64
2021/09/03 01:57:54;;;;;;;15.05;10.35;;;;;;;9.18;100.00;96289.06;1031199;28;20090;-65
2021/09/03 01:58:24;;;;;;;16.30;10.35;;;;;;;9.16;100.00;96291.94;1034508;28;20120;-64
2021/09/03 01:58:55;;;;;;;13.60;10.23;;;;;;;9.20;100.00;96305.34;1035739;28;20451;-64
2021/09/03 01:59:25;;;;;;;14.85;10.32;;;;;;;9.19;100.00;96301.16;1027113;28;20089;-67
2021/09/03 01:59:56;;;;;;;17.63;11.07;;;;;;;9.18;100.00;96300.34;1030916;28;20018;-67
2021/09/03 02:00:26;;;;;;;14.18;10.57;;;;;;;9.15;100.00;96300.84;1030505;28;20045;-66
2021/09/03 02:00:57;;;;;;;14.02;10.35;;;;;;;9.15;100.00;96300.03;1031145;28;20034;-68
2021/09/03 02:01:27;;;;;;;14.18;10.75;;;;;;;9.14;100.00;96304.47;1030316;28;20430;-67
2021/09/03 02:01:57;;;;;;;13.85;9.88;;;;;;;9.05;100.00;96290.19;1031087;28;20034;-67
2021/09/03 02:02:29;;;;;;;15.23;10.55;;;;;;;9.13;100.00;96297.66;1026316;28;20026;-67
2021/09/03 02:02:59;;;;;;;14.27;10.88;;;;;;;9.12;100.00;96301.31;1027062;28;20030;-68
2021/09/03 02:03:30;;;;;;;13.73;9.98;;;;;;;9.10;100.00;96299.97;1022985;29;20271;-67
2021/09/03 02:04:00;;;;;;;13.35;10.02;;;;;;;9.03;100.00;96286.25;1024248;28;20035;-67
2021/09/03 02:04:31;;;;;;;14.25;10.20;;;;;;;9.08;100.00;96302.03;1035220;28;20034;-67
2021/09/03 02:05:01;;;;;;;12.98;9.57;;;;;;;9.09;100.00;96299.19;1026896;28;20030;-65
2021/09/03 02:05:32;;;;;;;12.70;10.00;;;;;;;9.06;100.00;96297.03;1022016;29;20215;-65
2021/09/03 02:06:02;;;;;;;14.60;11.13;;;;;;;9.06;100.00;96302.28;1018665;29;20027;-67
2021/09/03 02:06:32;;;;;;;13.73;10.00;;;;;;;9.07;100.00;96296.00;1020639;29;20035;-66
2021/09/03 02:07:03;;;;;;;12.02;9.73;;;;;;;8.99;100.00;96291.16;1019057;28;20032;-67
2021/09/03 02:07:33;;;;;;;13.63;9.93;;;;;;;9.04;100.00;96306.16;1022623;28;20036;-64
2021/09/03 02:08:05;;;;;;;13.30;9.68;;;;;;;9.07;100.00;96308.28;1022910;28;20023;-67
2021/09/03 02:08:36;;;;;;;14.82;9.40;;;;;;;9.06;100.00;96304.88;1026988;28;20034;-66
2021/09/03 02:09:06;;;;;;;13.77;10.25;;;;;;;9.04;100.00;96299.09;1025242;28;20917;-68
2021/09/03 02:09:36;;;;;;;12.32;9.55;;;;;;;9.05;100.00;96300.66;1028441;28;20022;-67
2021/09/03 02:10:07;;;;;;;12.30;9.75;;;;;;;9.05;100.00;96300.66;1025252;28;20121;-67
2021/09/03 02:10:38;;;;;;;13.52;10.23;;;;;;;9.09;100.00;96303.63;1028238;28;20014;-67
2021/09/03 02:11:08;;;;;;;17.25;9.80;;;;;;;9.01;100.00;96294.31;1026576;28;20026;-67
2021/09/03 02:11:39;;;;;;;12.85;10.20;;;;;;;9.05;100.00;96299.88;1030120;28;20014;-68
2021/09/03 02:12:12;;;;;;;15.75;10.98;;;;;;;9.05;100.00;96300.66;1022868;28;20468;-67
2021/09/03 02:12:42;;;;;;;12.38;10.32;;;;;;;9.05;100.00;96290.19;1030813;28;20026;-67
2021/09/03 02:13:13;;;;;;;12.80;10.10;;;;;;;9.02;100.00;96290.69;1031461;28;20674;-67
2021/09/03 02:13:43;;;;;;;14.93;10.85;;;;;;;9.04;100.00;96296.47;1030881;28;20022;-67
2021/09/03 02:14:14;;;;;;;16.60;11.23;;;;;;;8.99;100.00;96291.16;1031092;28;20042;-67
2021/09/03 02:14:44;;;;;;;14.65;10.07;;;;;;;8.96;100.00;96286.41;1030314;28;20105;-66
2021/09/03 02:15:15;;;;;;;14.48;10.45;;;;;;;9.01;100.00;96294.31;1031117;28;20053;-67
2021/09/03 02:15:45;;;;;;;12.45;10.02;;;;;;;8.94;100.00;96278.78;1030975;28;20026;-67
2021/09/03 02:16:16;;;;;;;18.88;11.38;;;;;;;9.00;100.00;96292.75;1026962;28;20146;-67
2021/09/03 02:16:46;;;;;;;14.27;10.88;;;;;;;8.97;100.00;96288.00;1026644;28;20444;-67
2021/09/03 02:17:17;;;;;;;13.75;10.20;;;;;;;8.99;100.00;96296.41;1031123;28;20069;-67
2021/09/03 02:17:47;;;;;;;15.32;11.07;;;;;;;9.01;100.00;96283.84;1035068;28;20042;-67
2021/09/03 02:18:18;;;;;;;16.23;11.27;;;;;;;8.98;100.00;96286.94;1034941;28;20018;-67
2021/09/03 02:18:48;;;;;;;13.55;11.02;;;;;;;9.00;100.00;96290.13;1030743;28;20014;-67
2021/09/03 02:19:19;;;;;;;15.32;11.20;;;;;;;8.97;100.00;96288.00;1030840;28;20030;-68
2021/09/03 02:19:49;;;;;;;15.90;10.77;;;;;;;8.95;100.00;96285.63;1026916;28;20023;-67
2021/09/03 02:20:19;;;;;;;11.90;9.85;;;;;;;8.93;100.00;96287.66;1027030;28;20023;-67
2021/09/03 02:20:50;;;;;;;13.50;10.65;;;;;;;8.93;100.00;96290.28;1030935;28;20054;-67
2021/09/03 02:21:20;;;;;;;12.80;10.15;;;;;;;8.92;100.00;96287.88;1030312;28;20018;-67